createdAt,value
2022-08-25T00:00:24.132Z,8.18
2022-08-25T00:02:56.461Z,3.60
2022-08-25T00:05:29.478Z,9.80
2022-08-25T00:08:01.851Z,6.85
2022-08-25T00:10:34.882Z,7.18
2022-08-25T00:13:07.119Z,5.45
2022-08-25T00:15:36.369Z,7.38
2022-08-25T00:18:19.322Z,5.95
2022-08-25T00:20:48.962Z,5.10
2022-08-25T00:23:19.417Z,6.78
2022-08-25T00:25:51.090Z,4.95
2022-08-25T00:28:19.311Z,7.70
2022-08-25T00:30:50.870Z,6.72
2022-08-25T00:33:23.914Z,5.45
2022-08-25T00:35:58.090Z,5.70
2022-08-25T00:38:26.079Z,3.78
2022-08-25T00:41:06.203Z,5.93
2022-08-25T00:43:42.814Z,6.60
2022-08-25T00:46:16.146Z,7.55
2022-08-25T00:48:46.948Z,10.55
2022-08-25T00:51:22.846Z,6.63
2022-08-25T00:53:51.398Z,6.18
2022-08-25T00:56:19.581Z,6.40
2022-08-25T00:58:50.829Z,6.97
2022-08-25T01:01:18.779Z,4.25
2022-08-25T01:03:50.821Z,3.85
2022-08-25T01:06:19.335Z,5.85
2022-08-25T01:08:51.495Z,8.02
2022-08-25T01:11:19.276Z,4.53
2022-08-25T01:13:56.733Z,5.82
2022-08-25T01:16:27.320Z,4.07
2022-08-25T01:18:57.906Z,6.90
2022-08-25T01:21:27.624Z,5.78
2022-08-25T01:23:59.679Z,3.35
2022-08-25T01:26:34.339Z,8.75
2022-08-25T01:29:26.952Z,5.10
2022-08-25T01:32:01.330Z,6.38
2022-08-25T01:34:32.378Z,8.43
2022-08-25T01:37:03.934Z,4.85
2022-08-25T01:39:38.946Z,5.95
2022-08-25T01:42:20.180Z,7.50
2022-08-25T01:44:49.053Z,5.97
2022-08-25T01:47:16.906Z,5.00
2022-08-25T01:49:44.883Z,4.68
2022-08-25T01:52:24.664Z,5.47
2022-08-25T01:54:52.701Z,7.38
2022-08-25T01:57:20.605Z,5.53
2022-08-25T01:59:49.440Z,5.97
2022-08-25T02:02:18.430Z,10.95
2022-08-25T02:04:46.266Z,5.45
2022-08-25T02:07:19.056Z,6.30
2022-08-25T02:09:47.087Z,5.07
2022-08-25T02:12:15.555Z,8.15
2022-08-25T02:14:43.732Z,5.45
2022-08-25T02:17:14.267Z,7.45
2022-08-25T02:22:09.465Z,6.38
2022-08-25T02:24:38.945Z,7.82
2022-08-25T02:27:06.723Z,15.00
2022-08-25T02:29:35.084Z,14.60
2022-08-25T02:32:03.839Z,14.75
2022-08-25T02:34:32.742Z,15.23
2022-08-25T02:37:03.497Z,10.38
2022-08-25T02:39:33.474Z,13.20
2022-08-25T02:42:02.313Z,17.13
2022-08-25T02:44:31.878Z,12.77
2022-08-25T02:47:00.036Z,11.57
2022-08-25T02:49:28.428Z,14.15
2022-08-25T02:51:56.465Z,13.48
2022-08-25T02:54:39.540Z,12.80
2022-08-25T02:57:07.915Z,16.13
2022-08-25T02:59:36.114Z,14.35
2022-08-25T03:02:04.810Z,12.98
2022-08-25T03:04:32.793Z,12.30
2022-08-25T03:07:03.258Z,11.52
2022-08-25T03:09:35.448Z,11.57
2022-08-25T03:12:07.474Z,12.27
2022-08-25T03:14:35.471Z,15.95
2022-08-25T03:17:03.545Z,12.45
2022-08-25T03:19:39.842Z,9.48
2022-08-25T03:22:08.883Z,10.38
2022-08-25T03:24:36.511Z,12.65
2022-08-25T03:27:05.043Z,8.93
2022-08-25T03:29:35.938Z,14.27
2022-08-25T03:32:03.964Z,12.57
2022-08-25T03:34:31.825Z,8.93
2022-08-25T03:37:02.830Z,9.25
2022-08-25T03:39:33.165Z,13.35
2022-08-25T03:42:04.637Z,12.52
2022-08-25T03:44:33.675Z,10.43
2022-08-25T03:47:01.352Z,10.13
2022-08-25T03:49:34.648Z,10.50
2022-08-25T03:52:02.833Z,10.43
2022-08-25T03:54:30.556Z,12.88
2022-08-25T03:56:58.249Z,9.15
2022-08-25T03:59:30.274Z,8.05
2022-08-25T04:02:10.911Z,11.25
2022-08-25T04:04:39.011Z,12.88
2022-08-25T04:07:08.011Z,12.43
2022-08-25T04:09:39.667Z,12.43
2022-08-25T04:12:11.345Z,11.80
2022-08-25T04:14:41.367Z,14.43
2022-08-25T04:17:09.983Z,15.80
2022-08-25T04:19:38.382Z,18.63
2022-08-25T04:22:06.407Z,21.30
2022-08-25T04:24:40.487Z,17.20
2022-08-25T04:27:08.259Z,16.25
2022-08-25T04:29:37.241Z,19.45
2022-08-25T04:32:05.349Z,17.38
2022-08-25T04:34:33.487Z,17.10
2022-08-25T04:37:03.504Z,19.50
2022-08-25T04:39:31.815Z,18.88
2022-08-25T04:42:02.984Z,16.40
2022-08-25T04:44:32.008Z,20.83
2022-08-25T04:47:00.922Z,18.05
2022-08-25T04:49:28.922Z,14.77
2022-08-25T04:51:58.845Z,20.70
2022-08-25T04:54:29.700Z,19.60
2022-08-25T04:57:07.754Z,18.77
2022-08-25T04:59:35.549Z,25.02
2022-08-25T05:02:05.511Z,32.60
2022-08-25T05:04:39.733Z,27.52
2022-08-25T05:07:07.735Z,33.20
2022-08-25T05:09:35.976Z,32.95
2022-08-25T05:12:05.109Z,23.98
2022-08-25T05:17:02.224Z,30.30
2022-08-25T05:19:33.056Z,28.83
2022-08-25T05:22:03.156Z,34.05
2022-08-25T05:24:30.985Z,28.77
2022-08-25T05:26:59.237Z,27.42
2022-08-25T05:29:33.031Z,28.77
2022-08-25T05:32:00.750Z,29.73
2022-08-25T05:34:28.523Z,36.47
2022-08-25T05:37:00.165Z,33.67
2022-08-25T05:39:27.921Z,29.65
2022-08-25T05:41:56.050Z,32.38
2022-08-25T05:44:33.400Z,35.05
2022-08-25T05:47:01.300Z,33.05
2022-08-25T05:49:31.304Z,32.53
2022-08-25T05:52:01.387Z,36.67
2022-08-25T05:54:29.146Z,37.65
2022-08-25T05:56:58.712Z,35.08
2022-08-25T05:59:27.074Z,40.60
2022-08-25T06:02:13.244Z,37.53
2022-08-25T06:04:41.414Z,48.28
2022-08-25T06:07:10.330Z,44.97
2022-08-25T06:09:42.323Z,41.88
2022-08-25T06:12:10.019Z,40.35
2022-08-25T06:14:39.511Z,41.03
2022-08-25T06:17:07.315Z,40.75
2022-08-25T06:19:34.963Z,44.22
2022-08-25T06:22:10.521Z,39.90
2022-08-25T06:24:38.256Z,40.28
2022-08-25T06:27:06.101Z,45.00
2022-08-25T06:29:34.638Z,41.47
2022-08-25T06:32:03.735Z,39.92
2022-08-25T06:34:31.347Z,36.47
2022-08-25T06:36:58.943Z,36.47
2022-08-25T06:39:26.661Z,37.70
2022-08-25T06:41:56.484Z,41.95
2022-08-25T06:44:27.749Z,39.45
2022-08-25T06:46:55.686Z,43.30
2022-08-25T06:49:23.922Z,41.90
2022-08-25T06:51:51.921Z,34.88
2022-08-25T06:54:19.727Z,40.45
2022-08-25T06:56:50.442Z,38.67
2022-08-25T06:59:20.956Z,46.72
2022-08-25T07:01:49.669Z,39.33
2022-08-25T07:04:20.738Z,34.58
2022-08-25T07:06:48.514Z,37.85
2022-08-25T07:09:18.292Z,36.92
2022-08-25T07:11:46.531Z,36.95
2022-08-25T07:14:16.423Z,37.67
2022-08-25T07:16:49.424Z,38.97
2022-08-25T07:19:21.184Z,31.67
2022-08-25T07:21:52.183Z,30.73
2022-08-25T07:24:20.469Z,35.88
2022-08-25T07:26:48.365Z,33.22
2022-08-25T07:29:32.428Z,33.53
2022-08-25T07:32:02.582Z,27.83
2022-08-25T07:34:52.730Z,27.30
2022-08-25T07:37:38.418Z,26.23
2022-08-25T07:43:08.564Z,31.25
2022-08-25T07:45:48.516Z,35.60
2022-08-25T07:48:19.890Z,33.70
2022-08-25T07:50:50.489Z,32.88
2022-08-25T07:53:19.045Z,129.95
2022-08-25T07:55:47.288Z,104.00
2022-08-25T07:58:15.846Z,36.58
2022-08-25T08:00:50.688Z,29.85
2022-08-25T08:03:35.498Z,23.88
2022-08-25T08:06:12.484Z,26.80
2022-08-25T08:08:45.532Z,22.85
2022-08-25T08:11:22.670Z,23.83
2022-08-25T08:13:54.300Z,24.88
2022-08-25T08:16:24.782Z,23.42
2022-08-25T08:21:23.512Z,27.08
2022-08-25T08:23:58.136Z,26.08
2022-08-25T08:26:48.322Z,24.10
2022-08-25T08:29:16.729Z,25.05
2022-08-25T08:31:48.708Z,27.27
2022-08-25T08:34:19.321Z,24.90
2022-08-25T08:36:47.044Z,24.67
2022-08-25T08:39:14.697Z,25.58
2022-08-25T08:42:12.433Z,25.83
2022-08-25T08:44:46.189Z,27.40
2022-08-25T08:47:17.180Z,27.30
2022-08-25T08:50:03.866Z,24.75
2022-08-25T08:52:46.129Z,26.13
2022-08-25T08:55:30.678Z,24.50
2022-08-25T09:00:28.882Z,24.40
2022-08-25T09:03:13.264Z,28.20
2022-08-25T09:05:56.419Z,23.80
2022-08-25T09:08:34.453Z,23.50
2022-08-25T09:11:11.709Z,22.88
2022-08-25T09:13:54.949Z,27.88
2022-08-25T09:16:56.142Z,23.70
2022-08-25T09:19:56.483Z,23.25
2022-08-25T09:23:04.223Z,27.70
2022-08-25T09:25:53.983Z,23.95
2022-08-25T09:31:03.488Z,22.63
2022-08-25T09:33:35.603Z,22.60
2022-08-25T09:36:20.311Z,23.52
2022-08-25T09:38:50.925Z,23.88
2022-08-25T09:41:46.365Z,22.25
2022-08-25T09:44:26.031Z,20.77
2022-08-25T09:47:08.426Z,19.48
2022-08-25T09:49:43.313Z,16.88
2022-08-25T09:52:37.470Z,19.17
2022-08-25T09:55:14.647Z,18.35
2022-08-25T09:57:59.729Z,18.15
2022-08-25T10:00:33.233Z,16.52
2022-08-25T10:03:13.927Z,12.82
2022-08-25T10:05:56.300Z,13.40
2022-08-25T10:08:36.265Z,12.13
2022-08-25T10:11:13.154Z,15.15
2022-08-25T10:13:47.259Z,18.42
2022-08-25T10:16:36.480Z,14.25
2022-08-25T10:19:12.564Z,13.97
2022-08-25T10:21:42.830Z,15.40
2022-08-25T10:24:15.085Z,16.88
2022-08-25T10:27:15.129Z,12.82
2022-08-25T10:30:05.564Z,16.27
2022-08-25T10:32:54.237Z,13.88
2022-08-25T10:35:33.298Z,15.80
2022-08-25T10:39:04.030Z,14.68
2022-08-25T10:42:02.044Z,18.67
2022-08-25T10:45:11.440Z,15.55
2022-08-25T10:47:57.695Z,12.88
2022-08-25T10:51:09.255Z,11.48
2022-08-25T10:53:40.142Z,11.35
2022-08-25T10:56:21.650Z,9.68
2022-08-25T10:59:18.708Z,14.02
2022-08-25T11:02:32.829Z,10.90
2022-08-25T11:05:06.947Z,14.25
2022-08-25T11:07:50.348Z,10.90
2022-08-25T11:10:24.922Z,13.60
2022-08-25T11:13:00.593Z,11.85
2022-08-25T11:15:37.018Z,8.43
2022-08-25T11:18:14.470Z,8.82
2022-08-25T11:20:46.899Z,9.55
2022-08-25T11:23:22.670Z,8.73
2022-08-25T11:25:53.948Z,9.98
2022-08-25T11:28:49.772Z,8.32
2022-08-25T11:31:21.032Z,9.70
2022-08-25T11:33:51.828Z,6.13
2022-08-25T11:36:35.527Z,11.95
2022-08-25T11:39:28.928Z,8.77
2022-08-25T11:42:46.091Z,8.82
2022-08-25T11:45:54.394Z,7.38
2022-08-25T11:48:37.066Z,8.50
2022-08-25T11:51:09.521Z,7.93
2022-08-25T11:53:46.449Z,7.45
2022-08-25T11:56:43.487Z,6.35
2022-08-25T11:59:34.122Z,10.35
2022-08-25T12:02:03.023Z,9.20
2022-08-25T12:04:44.837Z,9.30
2022-08-25T12:07:23.408Z,8.05
2022-08-25T12:09:51.885Z,7.47
2022-08-25T12:13:04.955Z,6.73
2022-08-25T12:15:44.303Z,4.97
2022-08-25T12:18:35.294Z,6.13
2022-08-25T12:21:07.933Z,6.32
2022-08-25T12:23:45.053Z,5.15
2022-08-25T12:26:51.593Z,5.97
2022-08-25T12:29:31.775Z,5.45
2022-08-25T12:32:22.119Z,3.65
2022-08-25T12:35:04.258Z,2.80
2022-08-25T12:37:31.986Z,4.00
2022-08-25T12:40:05.825Z,3.60
2022-08-25T12:42:38.462Z,5.40
2022-08-25T12:45:25.557Z,4.20
2022-08-25T12:47:57.616Z,4.65
2022-08-25T12:50:40.340Z,4.43
2022-08-25T12:53:37.975Z,7.53
2022-08-25T12:56:07.479Z,3.42
2022-08-25T12:59:05.771Z,3.47
2022-08-25T13:02:03.202Z,7.45
2022-08-25T13:04:59.788Z,3.22
2022-08-25T13:07:41.041Z,6.35
2022-08-25T13:10:21.888Z,5.32
2022-08-25T13:13:03.274Z,6.32
2022-08-25T13:15:58.704Z,2.83
2022-08-25T13:18:26.615Z,7.20
2022-08-25T13:21:04.278Z,4.30
2022-08-25T13:23:36.761Z,5.15
2022-08-25T13:26:05.461Z,6.10
2022-08-25T13:28:37.706Z,5.88
2022-08-25T13:31:19.848Z,7.93
2022-08-25T13:34:10.679Z,5.78
2022-08-25T13:37:07.372Z,2.65
2022-08-25T13:39:55.430Z,2.75
2022-08-25T13:42:27.395Z,3.30
2022-08-25T13:44:59.744Z,3.90
2022-08-25T13:47:48.332Z,9.82
2022-08-25T13:50:46.122Z,3.00
2022-08-25T13:53:26.142Z,4.32
2022-08-25T13:56:04.749Z,4.07
2022-08-25T13:58:44.881Z,3.08
2022-08-25T14:01:46.349Z,3.00
2022-08-25T14:04:25.214Z,2.45
2022-08-25T14:07:26.315Z,4.38
2022-08-25T14:10:05.011Z,4.25
2022-08-25T14:12:37.128Z,2.78
2022-08-25T14:15:11.167Z,2.90
2022-08-25T14:17:44.054Z,5.22
2022-08-25T14:20:27.397Z,3.53
2022-08-25T14:22:58.478Z,3.85
2022-08-25T14:25:32.012Z,3.88
2022-08-25T14:28:06.909Z,2.95
2022-08-25T14:30:39.333Z,4.43
2022-08-25T14:33:10.054Z,2.67
2022-08-25T14:35:38.206Z,3.42
2022-08-25T14:38:11.704Z,2.03
2022-08-25T14:40:40.280Z,4.32
2022-08-25T14:43:10.798Z,3.92
2022-08-25T14:45:48.881Z,7.40
2022-08-25T14:48:27.391Z,2.92
2022-08-25T14:50:59.037Z,3.50
2022-08-25T14:53:28.602Z,5.38
2022-08-25T14:56:08.435Z,5.50
2022-08-25T14:58:51.490Z,3.70
2022-08-25T15:01:28.536Z,3.00
2022-08-25T15:04:13.127Z,5.70
2022-08-25T15:06:44.596Z,3.85
2022-08-25T15:09:23.825Z,2.60
2022-08-25T15:11:58.307Z,4.80
2022-08-25T15:14:29.041Z,3.65
2022-08-25T15:17:02.419Z,2.65
2022-08-25T15:19:54.783Z,4.45
2022-08-25T15:22:30.724Z,3.10
2022-08-25T15:24:58.665Z,4.32
2022-08-25T15:27:30.892Z,4.05
2022-08-25T15:30:00.067Z,3.70
2022-08-25T15:32:28.893Z,5.30
2022-08-25T15:34:56.659Z,5.85
2022-08-25T15:37:24.420Z,5.43
2022-08-25T15:39:52.289Z,4.00
2022-08-25T15:42:21.249Z,5.82
2022-08-25T15:44:53.331Z,5.45
2022-08-25T15:47:22.955Z,7.50
2022-08-25T15:50:01.444Z,5.75
2022-08-25T15:52:44.422Z,7.05
2022-08-25T15:55:16.684Z,5.40
2022-08-25T15:57:45.446Z,4.68
2022-08-25T16:00:16.610Z,3.92
2022-08-25T16:02:45.511Z,3.78
2022-08-25T16:05:26.300Z,4.43
2022-08-25T16:07:57.724Z,5.45
2022-08-25T16:10:27.880Z,5.57
2022-08-25T16:12:55.536Z,4.53
2022-08-25T16:15:28.928Z,4.68
2022-08-25T16:18:07.808Z,6.07
2022-08-25T16:20:37.007Z,4.85
2022-08-25T16:23:07.759Z,6.28
2022-08-25T16:25:51.872Z,4.78
2022-08-25T16:28:24.505Z,7.22
2022-08-25T16:30:56.153Z,4.40
2022-08-25T16:34:01.345Z,4.03
2022-08-25T16:36:29.970Z,6.30
2022-08-25T16:39:01.089Z,4.03
2022-08-25T16:41:39.304Z,6.13
2022-08-25T16:46:44.536Z,6.35
2022-08-25T16:49:19.178Z,6.75
2022-08-25T16:51:57.989Z,6.28
2022-08-25T16:54:45.153Z,8.73
2022-08-25T16:57:16.275Z,9.13
2022-08-25T16:59:44.736Z,11.27
2022-08-25T17:02:13.030Z,8.88
2022-08-25T17:04:41.613Z,13.90
2022-08-25T17:07:10.256Z,11.10
2022-08-25T17:09:38.390Z,12.05
2022-08-25T17:12:11.479Z,15.20
2022-08-25T17:14:39.552Z,12.05
2022-08-25T17:17:07.549Z,13.57
2022-08-25T17:19:36.503Z,11.70
2022-08-25T17:22:07.453Z,13.90
2022-08-25T17:24:37.519Z,15.10
2022-08-25T17:27:10.013Z,16.55
2022-08-25T17:29:43.477Z,14.93
2022-08-25T17:32:11.964Z,17.02
2022-08-25T17:34:42.054Z,14.05
2022-08-25T17:37:11.106Z,16.90
2022-08-25T17:39:39.871Z,16.05
2022-08-25T17:42:07.634Z,18.33
2022-08-25T17:44:36.291Z,16.83
2022-08-25T17:47:06.268Z,17.17
2022-08-25T17:49:35.405Z,14.90
2022-08-25T17:52:03.890Z,14.23
2022-08-25T17:54:32.916Z,14.98
2022-08-25T17:57:03.217Z,17.95
2022-08-25T17:59:33.975Z,20.33
2022-08-25T18:02:02.173Z,17.98
2022-08-25T18:04:29.906Z,19.48
2022-08-25T18:06:58.703Z,18.85
2022-08-25T18:09:26.379Z,20.25
2022-08-25T18:11:56.891Z,17.27
2022-08-25T18:16:57.094Z,20.38
2022-08-25T18:19:24.904Z,18.48
2022-08-25T18:21:52.701Z,20.33
2022-08-25T18:24:20.619Z,18.05
2022-08-25T18:26:53.927Z,18.92
2022-08-25T18:31:49.869Z,19.05
2022-08-25T18:36:51.976Z,20.33
2022-08-25T18:39:38.655Z,21.65
2022-08-25T18:42:08.853Z,18.48
2022-08-25T18:44:46.487Z,20.20
2022-08-25T18:47:36.208Z,20.52
2022-08-25T18:50:14.304Z,21.67
2022-08-25T18:52:42.363Z,18.92
2022-08-25T18:55:15.158Z,17.88
2022-08-25T18:57:42.987Z,18.83
2022-08-25T19:00:19.863Z,21.05
2022-08-25T19:02:52.824Z,20.15
2022-08-25T19:05:27.408Z,21.17
2022-08-25T19:07:58.457Z,21.67
2022-08-25T19:10:33.070Z,21.25
2022-08-25T19:13:07.876Z,22.10
2022-08-25T19:15:39.433Z,20.15
2022-08-25T19:18:09.953Z,21.33
2022-08-25T19:20:39.710Z,20.98
2022-08-25T19:23:08.941Z,22.77
2022-08-25T19:25:41.446Z,19.13
2022-08-25T19:28:12.232Z,20.08
2022-08-25T19:30:50.655Z,19.83
2022-08-25T19:33:41.970Z,23.70
2022-08-25T19:36:10.527Z,20.30
2022-08-25T19:38:39.464Z,18.00
2022-08-25T19:41:20.215Z,18.88
2022-08-25T19:43:56.437Z,18.77
2022-08-25T19:46:37.483Z,18.27
2022-08-25T19:49:09.393Z,19.88
2022-08-25T19:51:44.255Z,16.05
2022-08-25T19:54:21.771Z,18.65
2022-08-25T19:56:55.686Z,18.85
2022-08-25T19:59:42.649Z,17.33
2022-08-25T20:02:18.617Z,18.47
2022-08-25T20:04:52.276Z,16.42
2022-08-25T20:07:25.364Z,19.75
2022-08-25T20:09:56.423Z,20.02
2022-08-25T20:12:33.237Z,16.45
2022-08-25T20:15:17.892Z,20.95
2022-08-25T20:17:49.276Z,18.17
2022-08-25T20:20:32.635Z,18.00
2022-08-25T20:23:23.990Z,16.92
2022-08-25T20:25:51.923Z,19.50
2022-08-25T20:28:32.632Z,18.05
2022-08-25T20:31:05.509Z,20.13
2022-08-25T20:33:33.953Z,20.67
2022-08-25T20:36:02.441Z,18.95
2022-08-25T20:38:32.148Z,18.70
2022-08-25T20:43:35.705Z,18.60
2022-08-25T20:46:27.761Z,18.77
2022-08-25T20:48:57.595Z,17.30
2022-08-25T20:51:25.787Z,19.87
2022-08-25T20:53:53.950Z,21.02
2022-08-25T20:56:24.614Z,19.38
2022-08-25T21:01:38.038Z,25.10
2022-08-25T21:04:11.227Z,19.27
2022-08-25T21:06:47.307Z,17.92
2022-08-25T21:09:20.021Z,19.63
2022-08-25T21:11:54.866Z,16.67
2022-08-25T21:14:31.878Z,19.52
2022-08-25T21:17:00.769Z,18.42
2022-08-25T21:19:31.702Z,20.33
2022-08-25T21:22:00.452Z,19.67
2022-08-25T21:24:28.984Z,17.70
2022-08-25T21:27:00.048Z,18.50
2022-08-25T21:29:29.987Z,19.10
2022-08-25T21:32:03.198Z,17.40
2022-08-25T21:34:31.978Z,15.57
2022-08-25T21:37:00.177Z,19.75
2022-08-25T21:39:29.928Z,13.73
2022-08-25T21:42:00.567Z,16.05
2022-08-25T21:44:35.258Z,14.40
2022-08-25T21:50:21.272Z,15.63
2022-08-25T21:52:54.488Z,18.17
2022-08-25T21:55:26.879Z,17.52
2022-08-25T21:57:57.427Z,13.95
2022-08-25T22:00:32.578Z,16.15
2022-08-25T22:03:01.306Z,16.60
2022-08-25T22:05:31.491Z,17.13
2022-08-25T22:07:59.218Z,15.32
2022-08-25T22:10:27.623Z,16.85
2022-08-25T22:12:56.111Z,15.80
2022-08-25T22:15:25.626Z,20.92
2022-08-25T22:17:53.531Z,18.90
2022-08-25T22:20:22.977Z,18.05
2022-08-25T22:22:56.554Z,16.48
2022-08-25T22:25:27.375Z,18.48
2022-08-25T22:28:04.816Z,19.13
2022-08-25T22:30:33.438Z,16.75
2022-08-25T22:33:01.836Z,17.25
2022-08-25T22:35:35.773Z,16.88
2022-08-25T22:38:04.437Z,19.02
2022-08-25T22:40:44.596Z,20.65
2022-08-25T22:43:12.415Z,19.05
2022-08-25T22:45:46.218Z,22.13
2022-08-25T22:48:16.253Z,18.27
2022-08-25T22:50:47.963Z,18.98
2022-08-25T22:53:15.729Z,18.67
2022-08-25T22:55:49.628Z,20.25
2022-08-25T23:00:49.635Z,17.58
2022-08-25T23:03:21.457Z,19.55
2022-08-25T23:05:58.417Z,20.52
2022-08-25T23:08:39.370Z,20.48
2022-08-25T23:11:10.846Z,19.10
2022-08-25T23:13:44.065Z,20.63
2022-08-25T23:16:16.167Z,23.98
2022-08-25T23:18:47.166Z,25.40
2022-08-25T23:21:42.333Z,20.80
2022-08-25T23:24:29.314Z,19.42
2022-08-25T23:27:10.545Z,21.77
2022-08-25T23:29:41.697Z,21.65
2022-08-25T23:32:14.450Z,18.60
2022-08-25T23:34:46.680Z,19.15
2022-08-25T23:37:18.431Z,22.33
2022-08-25T23:39:50.064Z,21.73
2022-08-25T23:42:20.144Z,21.77
2022-08-25T23:44:49.147Z,19.48
2022-08-25T23:47:17.561Z,22.85
2022-08-25T23:49:45.744Z,19.67
2022-08-25T23:52:17.450Z,21.25
2022-08-25T23:54:46.241Z,20.00
2022-08-25T23:57:13.991Z,20.98
2022-08-25T23:59:45.810Z,20.05
